Time;durP1;ratioP1;P1;durP2;ratioP2;P2;SDS_P1;SDS_P2;PMS_P1;PMS_P2;Temp;Humidity;BMP_temperature;BMP_pressure;BME280_temperature;BME280_humidity;BME280_pressure;Samples;Min_cycle;Max_cycle;Signal;HPM_P1;HPM_P2
2022/09/13 00:02:11;;;;;;;1999.90;999.90;;;;;;;;;;4999175;28;20412;-72
2022/09/13 00:04:38;;;;;;;1999.90;999.90;;;;;;;;;;4999390;28;20411;-72
2022/09/13 00:07:06;;;;;;;1999.90;999.90;;;;;;;;;;4999769;28;20466;-72
2022/09/13 00:09:34;;;;;;;1999.90;999.90;;;;;;;;;;5000904;28;21413;-72
2022/09/13 00:12:01;;;;;;;1999.90;999.90;;;;;;;;;;4999119;28;20502;-72
2022/09/13 00:14:29;;;;;;;1999.90;999.90;;;;;;;;;;5000023;28;20431;-72
2022/09/13 00:16:58;;;;;;;1999.90;999.90;;;;;;;;;;4996377;28;20897;-73
2022/09/13 00:19:26;;;;;;;1999.90;999.90;;;;;;;;;;4996712;28;20416;-72
2022/09/13 00:21:53;;;;;;;1999.90;999.90;;;;;;;;;;4998646;28;20395;-72
2022/09/13 00:24:21;;;;;;;1999.90;999.90;;;;;;;;;;5000871;28;20954;-72
2022/09/13 00:26:48;;;;;;;1999.90;999.90;;;;;;;;;;4999553;28;21240;-73
2022/09/13 00:29:16;;;;;;;1999.90;999.90;;;;;;;;;;4998954;28;20418;-72
2022/09/13 00:31:44;;;;;;;1999.90;999.90;;;;;;;;;;5000974;28;20476;-72
2022/09/13 00:34:13;;;;;;;1999.90;999.90;;;;;;;;;;4996047;28;20404;-71
2022/09/13 00:36:40;;;;;;;1999.90;999.90;;;;;;;;;;4997908;28;20906;-71
2022/09/13 00:39:08;;;;;;;1999.90;999.90;;;;;;;;;;4995750;28;20412;-71
2022/09/13 00:41:37;;;;;;;1999.90;999.90;;;;;;;;;;4995641;28;20400;-72
2022/09/13 00:44:05;;;;;;;1999.90;999.90;;;;;;;;;;4997717;28;20499;-72
2022/09/13 00:46:36;;;;;;;1999.90;999.90;;;;;;;;;;4994431;28;20514;-72
2022/09/13 00:49:10;;;;;;;1999.90;999.90;;;;;;;;;;4997501;28;21715;-72
2022/09/13 00:51:39;;;;;;;1999.90;999.90;;;;;;;;;;4997261;28;20822;-72
2022/09/13 00:54:07;;;;;;;1999.90;999.90;;;;;;;;;;4997083;28;20540;-72
2022/09/13 00:56:37;;;;;;;1999.90;999.90;;;;;;;;;;4998121;28;21123;-73
2022/09/13 00:59:07;;;;;;;1999.90;999.90;;;;;;;;;;4991836;28;20403;-72
2022/09/13 01:01:36;;;;;;;1999.90;999.90;;;;;;;;;;4996801;28;20420;-72
2022/09/13 01:04:04;;;;;;;1999.90;999.90;;;;;;;;;;4999159;28;20476;-72
2022/09/13 01:06:41;;;;;;;1999.90;999.90;;;;;;;;;;5002703;28;20463;-72
2022/09/13 01:09:11;;;;;;;1999.90;999.90;;;;;;;;;;5002469;28;20407;-72
2022/09/13 01:11:42;;;;;;;1999.90;999.90;;;;;;;;;;5002456;28;20420;-71
2022/09/13 01:14:10;;;;;;;1999.90;999.90;;;;;;;;;;5003178;28;20886;-71
2022/09/13 01:16:37;;;;;;;1999.90;999.90;;;;;;;;;;5001638;28;20465;-72
2022/09/13 01:19:05;;;;;;;1999.90;999.90;;;;;;;;;;4997393;28;20435;-72
2022/09/13 01:21:51;;;;;;;1999.90;999.90;;;;;;;;;;5002086;28;20435;-72
2022/09/13 01:24:36;;;;;;;1999.90;999.90;;;;;;;;;;5002029;28;20499;-72
2022/09/13 01:27:20;;;;;;;1999.90;999.90;;;;;;;;;;4982544;28;20420;-72
2022/09/13 01:30:02;;;;;;;1999.90;999.90;;;;;;;;;;5002852;28;20467;-71
2022/09/13 01:32:34;;;;;;;1999.90;999.90;;;;;;;;;;5002966;28;20486;-72
2022/09/13 01:35:08;;;;;;;1999.90;999.90;;;;;;;;;;4999807;28;20870;-72
2022/09/13 01:37:44;;;;;;;1999.90;999.90;;;;;;;;;;5002579;28;20526;-72
2022/09/13 01:40:17;;;;;;;1999.90;999.90;;;;;;;;;;4984556;28;20430;-72
2022/09/13 01:42:57;;;;;;;1999.90;999.90;;;;;;;;;;5001842;28;20507;-72
2022/09/13 01:45:32;;;;;;;1999.90;999.90;;;;;;;;;;5000388;28;20547;-72
2022/09/13 01:48:01;;;;;;;1999.90;999.90;;;;;;;;;;5003738;28;20412;-73
2022/09/13 01:50:34;;;;;;;1999.90;999.90;;;;;;;;;;5001093;28;20491;-72
2022/09/13 01:53:05;;;;;;;1999.90;999.90;;;;;;;;;;5000188;28;20412;-71
2022/09/13 01:55:34;;;;;;;1999.90;999.90;;;;;;;;;;5001121;28;20411;-72
2022/09/13 01:58:09;;;;;;;1999.90;999.90;;;;;;;;;;5000640;28;20487;-72
2022/09/13 02:00:41;;;;;;;1999.90;999.90;;;;;;;;;;5002206;28;21118;-72
2022/09/13 02:03:11;;;;;;;1999.90;999.90;;;;;;;;;;4994439;28;20391;-72
2022/09/13 02:05:42;;;;;;;1999.90;999.90;;;;;;;;;;5010689;28;20499;-72
2022/09/13 02:08:12;;;;;;;1999.90;999.90;;;;;;;;;;4992288;28;20502;-72
2022/09/13 02:10:42;;;;;;;1999.90;999.90;;;;;;;;;;5010849;28;20512;-72
2022/09/13 02:13:13;;;;;;;1999.90;999.90;;;;;;;;;;4993534;28;20420;-72
2022/09/13 02:15:44;;;;;;;1999.90;999.90;;;;;;;;;;5015196;28;20661;-72
2022/09/13 02:18:16;;;;;;;1999.90;999.90;;;;;;;;;;5002511;28;21056;-72
2022/09/13 02:20:46;;;;;;;1999.90;999.90;;;;;;;;;;5002744;28;22242;-71
2022/09/13 02:23:16;;;;;;;1999.90;999.90;;;;;;;;;;5001425;28;20396;-70
2022/09/13 02:25:46;;;;;;;1999.90;999.90;;;;;;;;;;5000635;28;20505;-71
2022/09/13 02:28:21;;;;;;;1999.90;999.90;;;;;;;;;;5017256;28;21942;-71
2022/09/13 02:30:52;;;;;;;1999.90;999.90;;;;;;;;;;5017764;28;20577;-71
2022/09/13 02:33:23;;;;;;;1999.90;999.90;;;;;;;;;;4999668;28;20823;-70
2022/09/13 02:35:53;;;;;;;1999.90;999.90;;;;;;;;;;4993800;28;20933;-72
2022/09/13 02:38:23;;;;;;;1999.90;999.90;;;;;;;;;;5000408;28;20478;-72
2022/09/13 02:40:55;;;;;;;1999.90;999.90;;;;;;;;;;4998599;28;20392;-72
2022/09/13 02:43:27;;;;;;;1999.90;999.90;;;;;;;;;;4999428;28;20438;-71
2022/09/13 02:46:04;;;;;;;1999.90;999.90;;;;;;;;;;5016130;28;20404;-71
2022/09/13 02:48:37;;;;;;;1999.90;999.90;;;;;;;;;;5002194;28;20964;-71
2022/09/13 02:51:08;;;;;;;1999.90;999.90;;;;;;;;;;5002770;28;20968;-71
2022/09/13 02:53:40;;;;;;;1999.90;999.90;;;;;;;;;;5000148;28;20486;-71
2022/09/13 02:56:17;;;;;;;1999.90;999.90;;;;;;;;;;4999653;28;20420;-72
2022/09/13 02:58:46;;;;;;;1999.90;999.90;;;;;;;;;;4982823;28;20427;-72
2022/09/13 03:01:15;;;;;;;1999.90;999.90;;;;;;;;;;4999864;28;20417;-72
2022/09/13 03:03:43;;;;;;;1999.90;999.90;;;;;;;;;;5016867;28;20396;-71
2022/09/13 03:06:11;;;;;;;1999.90;999.90;;;;;;;;;;5002510;28;20400;-71
2022/09/13 03:08:39;;;;;;;1999.90;999.90;;;;;;;;;;4998546;28;20403;-71
2022/09/13 03:11:11;;;;;;;1999.90;999.90;;;;;;;;;;5002276;28;20473;-72
2022/09/13 03:13:56;;;;;;;1999.90;999.90;;;;;;;;;;5001526;28;20451;-72
2022/09/13 03:16:42;;;;;;;1999.90;999.90;;;;;;;;;;5000874;28;20416;-71
2022/09/13 03:19:28;;;;;;;1999.90;999.90;;;;;;;;;;5000960;28;20469;-72
2022/09/13 03:22:01;;;;;;;1999.90;999.90;;;;;;;;;;5016927;28;20423;-72
2022/09/13 03:24:32;;;;;;;1999.90;999.90;;;;;;;;;;5000687;28;20403;-72
2022/09/13 03:27:06;;;;;;;1999.90;999.90;;;;;;;;;;5015307;28;20548;-73
2022/09/13 03:29:39;;;;;;;1999.90;999.90;;;;;;;;;;4999386;28;20494;-72
2022/09/13 03:32:13;;;;;;;1999.90;999.90;;;;;;;;;;5001279;28;20429;-72
2022/09/13 03:34:47;;;;;;;1999.90;999.90;;;;;;;;;;5000660;28;21809;-72
2022/09/13 03:37:21;;;;;;;1999.90;999.90;;;;;;;;;;5001826;28;20415;-71
2022/09/13 03:39:52;;;;;;;1999.90;999.90;;;;;;;;;;5001510;28;20459;-72
2022/09/13 03:42:23;;;;;;;1999.90;999.90;;;;;;;;;;5000906;28;20649;-71
2022/09/13 03:44:52;;;;;;;1999.90;999.90;;;;;;;;;;5001050;28;20989;-71
2022/09/13 03:47:21;;;;;;;1999.90;999.90;;;;;;;;;;4997583;28;20444;-71
2022/09/13 03:49:51;;;;;;;1999.90;999.90;;;;;;;;;;5015056;28;20503;-71
2022/09/13 03:52:19;;;;;;;1999.90;999.90;;;;;;;;;;4999834;28;20424;-71
2022/09/13 03:54:47;;;;;;;1999.90;999.90;;;;;;;;;;5001098;28;20423;-72
2022/09/13 03:57:16;;;;;;;1999.90;999.90;;;;;;;;;;4997985;28;21252;-73
2022/09/13 03:59:45;;;;;;;1999.90;999.90;;;;;;;;;;4992177;28;20500;-72
2022/09/13 04:02:14;;;;;;;1999.90;999.90;;;;;;;;;;4998208;28;20447;-72
2022/09/13 04:04:43;;;;;;;1999.90;999.90;;;;;;;;;;4999265;28;21356;-72
2022/09/13 04:07:12;;;;;;;1999.90;999.90;;;;;;;;;;4998100;28;20415;-72
2022/09/13 04:09:40;;;;;;;1999.90;999.90;;;;;;;;;;4997457;28;20466;-72
2022/09/13 04:12:08;;;;;;;1999.90;999.90;;;;;;;;;;5017032;28;20439;-71
2022/09/13 04:14:36;;;;;;;1999.90;999.90;;;;;;;;;;5000253;28;20407;-71
2022/09/13 04:17:04;;;;;;;1999.90;999.90;;;;;;;;;;4996030;28;20403;-72
2022/09/13 04:19:32;;;;;;;1999.90;999.90;;;;;;;;;;4999731;28;20392;-73
2022/09/13 04:21:59;;;;;;;1999.90;999.90;;;;;;;;;;5000085;28;20415;-72
2022/09/13 04:24:30;;;;;;;1999.90;999.90;;;;;;;;;;4983006;28;20448;-72
2022/09/13 04:26:58;;;;;;;1999.90;999.90;;;;;;;;;;5000150;28;20433;-72
2022/09/13 04:29:26;;;;;;;1999.90;999.90;;;;;;;;;;4982042;28;20425;-72
2022/09/13 04:31:54;;;;;;;1999.90;999.90;;;;;;;;;;4998916;28;21223;-73
2022/09/13 04:34:22;;;;;;;1999.90;999.90;;;;;;;;;;4996535;28;20397;-72
2022/09/13 04:36:51;;;;;;;1999.90;999.90;;;;;;;;;;4995142;28;20391;-72
2022/09/13 04:39:18;;;;;;;1999.90;999.90;;;;;;;;;;5014747;28;20901;-72
2022/09/13 04:41:48;;;;;;;1999.90;999.90;;;;;;;;;;5002199;28;21396;-72
2022/09/13 04:44:16;;;;;;;1999.90;999.90;;;;;;;;;;4998139;28;21343;-74
2022/09/13 04:46:46;;;;;;;1999.90;999.90;;;;;;;;;;5001842;28;21441;-73
2022/09/13 04:49:14;;;;;;;1999.90;999.90;;;;;;;;;;5000250;28;20897;-73
2022/09/13 04:51:42;;;;;;;1999.90;999.90;;;;;;;;;;5001574;28;20510;-75
2022/09/13 04:54:11;;;;;;;1999.90;999.90;;;;;;;;;;4985411;28;20997;-74
2022/09/13 04:56:42;;;;;;;1999.90;999.90;;;;;;;;;;4998474;28;20410;-75
2022/09/13 04:59:12;;;;;;;1999.90;999.90;;;;;;;;;;5016047;28;20490;-76
2022/09/13 05:01:40;;;;;;;1999.90;999.90;;;;;;;;;;5003345;28;20487;-75
2022/09/13 05:04:08;;;;;;;1999.90;999.90;;;;;;;;;;5002036;28;20395;-76
2022/09/13 05:06:36;;;;;;;1999.90;999.90;;;;;;;;;;5001068;28;20913;-76
2022/09/13 05:09:05;;;;;;;1999.90;999.90;;;;;;;;;;4999913;28;20416;-76
2022/09/13 05:11:33;;;;;;;1999.90;999.90;;;;;;;;;;5000687;28;20427;-77
2022/09/13 05:14:01;;;;;;;1999.90;999.90;;;;;;;;;;4985076;28;21597;-77
2022/09/13 05:16:31;;;;;;;1999.90;999.90;;;;;;;;;;5001215;28;20427;-75
2022/09/13 05:18:59;;;;;;;1999.90;999.90;;;;;;;;;;4999255;28;20451;-77
2022/09/13 05:21:27;;;;;;;1999.90;999.90;;;;;;;;;;5003425;28;20483;-76
2022/09/13 05:23:56;;;;;;;1999.90;999.90;;;;;;;;;;5002383;28;20459;-76
2022/09/13 05:26:24;;;;;;;1999.90;999.90;;;;;;;;;;5020753;28;20424;-76
2022/09/13 05:28:52;;;;;;;1999.90;999.90;;;;;;;;;;5019211;28;20408;-75
2022/09/13 05:31:21;;;;;;;1999.90;999.90;;;;;;;;;;5018741;28;20416;-76
2022/09/13 05:33:53;;;;;;;1999.90;999.90;;;;;;;;;;5003854;28;20411;-76
2022/09/13 05:36:20;;;;;;;1999.90;999.90;;;;;;;;;;5006249;28;20415;-76
2022/09/13 05:38:48;;;;;;;1999.90;999.90;;;;;;;;;;5006752;28;20440;-75
2022/09/13 05:41:33;;;;;;;1999.90;999.90;;;;;;;;;;5004611;28;20419;-77
2022/09/13 05:44:01;;;;;;;1999.90;999.90;;;;;;;;;;5003290;28;20403;-75
2022/09/13 05:46:39;;;;;;;1999.90;999.90;;;;;;;;;;5001095;28;20535;-75
2022/09/13 05:49:08;;;;;;;1999.90;999.90;;;;;;;;;;5015230;28;20447;-75
2022/09/13 05:51:36;;;;;;;1999.90;999.90;;;;;;;;;;5003858;28;20510;-75
2022/09/13 05:54:03;;;;;;;1999.90;999.90;;;;;;;;;;5002393;28;20400;-76
2022/09/13 05:56:31;;;;;;;1999.90;999.90;;;;;;;;;;4999294;28;20400;-75
2022/09/13 05:58:59;;;;;;;1999.90;999.90;;;;;;;;;;5001527;28;20396;-76
2022/09/13 06:01:27;;;;;;;1999.90;999.90;;;;;;;;;;5002145;28;20407;-76
2022/09/13 06:03:56;;;;;;;1999.90;999.90;;;;;;;;;;5001991;28;20415;-75
2022/09/13 06:06:25;;;;;;;1999.90;999.90;;;;;;;;;;5002570;28;21060;-76
2022/09/13 06:08:53;;;;;;;1999.90;999.90;;;;;;;;;;5003968;28;20404;-75
2022/09/13 06:11:21;;;;;;;1999.90;999.90;;;;;;;;;;5002092;28;20440;-75
2022/09/13 06:13:50;;;;;;;1999.90;999.90;;;;;;;;;;5002871;28;20410;-75
2022/09/13 06:16:17;;;;;;;1999.90;999.90;;;;;;;;;;5012930;28;20562;-75
2022/09/13 06:18:45;;;;;;;1999.90;999.90;;;;;;;;;;4991301;28;21301;-76
2022/09/13 06:21:16;;;;;;;1999.90;999.90;;;;;;;;;;4993877;28;20589;-75
2022/09/13 06:23:46;;;;;;;1999.90;999.90;;;;;;;;;;5000609;28;20415;-75
2022/09/13 06:26:15;;;;;;;1999.90;999.90;;;;;;;;;;4999581;28;20413;-76
2022/09/13 06:28:43;;;;;;;1999.90;999.90;;;;;;;;;;5009298;28;20467;-75
2022/09/13 06:31:11;;;;;;;1999.90;999.90;;;;;;;;;;5002242;28;20415;-74
2022/09/13 06:33:40;;;;;;;1999.90;999.90;;;;;;;;;;5003209;28;20434;-78
2022/09/13 06:36:09;;;;;;;1999.90;999.90;;;;;;;;;;5006194;28;20391;-75
2022/09/13 06:38:38;;;;;;;1999.90;999.90;;;;;;;;;;5017333;28;20997;-75
2022/09/13 06:41:08;;;;;;;1999.90;999.90;;;;;;;;;;4999990;28;20509;-75
2022/09/13 06:43:36;;;;;;;1999.90;999.90;;;;;;;;;;5002250;28;20876;-75
2022/09/13 06:46:06;;;;;;;1999.90;999.90;;;;;;;;;;5001365;28;20395;-76
2022/09/13 06:48:34;;;;;;;1999.90;999.90;;;;;;;;;;4985572;28;20410;-75
2022/09/13 06:51:03;;;;;;;1999.90;999.90;;;;;;;;;;5001357;28;21930;-76
2022/09/13 06:53:32;;;;;;;1999.90;999.90;;;;;;;;;;5003137;28;20396;-75
2022/09/13 06:56:04;;;;;;;1999.90;999.90;;;;;;;;;;5001277;28;20419;-77
2022/09/13 06:58:34;;;;;;;1999.90;999.90;;;;;;;;;;5001378;28;20478;-76
2022/09/13 07:01:08;;;;;;;1999.90;999.90;;;;;;;;;;4998492;28;20422;-76
2022/09/13 07:03:36;;;;;;;1999.90;999.90;;;;;;;;;;5000713;28;20407;-75
2022/09/13 07:06:09;;;;;;;1999.90;999.90;;;;;;;;;;4983393;28;20411;-77
2022/09/13 07:08:37;;;;;;;1999.90;999.90;;;;;;;;;;4994952;28;20411;-76
2022/09/13 07:11:06;;;;;;;1999.90;999.90;;;;;;;;;;4996072;28;20379;-76
2022/09/13 07:13:35;;;;;;;1999.90;999.90;;;;;;;;;;5000022;28;21717;-76
2022/09/13 07:16:03;;;;;;;1999.90;999.90;;;;;;;;;;5000340;28;21677;-75
2022/09/13 07:18:31;;;;;;;1999.90;999.90;;;;;;;;;;4998184;28;20468;-75
2022/09/13 07:21:00;;;;;;;1999.90;999.90;;;;;;;;;;5000271;28;21189;-77
2022/09/13 07:23:28;;;;;;;1999.90;999.90;;;;;;;;;;4984936;28;20396;-74
2022/09/13 07:26:00;;;;;;;1999.90;999.90;;;;;;;;;;5002200;28;20462;-75
2022/09/13 07:28:29;;;;;;;1999.90;999.90;;;;;;;;;;4999531;28;20399;-74
2022/09/13 07:31:07;;;;;;;1999.90;999.90;;;;;;;;;;5002192;28;20411;-74
2022/09/13 07:33:35;;;;;;;1999.90;999.90;;;;;;;;;;5000653;28;20438;-75
2022/09/13 07:36:05;;;;;;;1999.90;999.90;;;;;;;;;;5000978;28;20478;-75
2022/09/13 07:38:34;;;;;;;1999.90;999.90;;;;;;;;;;5002980;28;20413;-74
2022/09/13 07:41:02;;;;;;;1999.90;999.90;;;;;;;;;;5003824;28;20471;-75
2022/09/13 07:43:29;;;;;;;1999.90;999.90;;;;;;;;;;5004220;28;20400;-74
2022/09/13 07:45:58;;;;;;;1999.90;999.90;;;;;;;;;;5019115;28;20430;-74
2022/09/13 07:48:28;;;;;;;1999.90;999.90;;;;;;;;;;5004397;28;20409;-74
2022/09/13 07:51:00;;;;;;;1999.90;999.90;;;;;;;;;;5002246;28;20857;-75
2022/09/13 07:53:29;;;;;;;1999.90;999.90;;;;;;;;;;4986024;28;20487;-76
2022/09/13 07:56:00;;;;;;;1999.90;999.90;;;;;;;;;;5004080;28;20591;-75
2022/09/13 07:58:28;;;;;;;1999.90;999.90;;;;;;;;;;5016717;28;20471;-74
2022/09/13 08:01:00;;;;;;;1999.90;999.90;;;;;;;;;;5002833;28;20430;-75
2022/09/13 08:03:29;;;;;;;1999.90;999.90;;;;;;;;;;5002279;28;20408;-76
2022/09/13 08:05:56;;;;;;;1999.90;999.90;;;;;;;;;;5001098;28;20399;-75
2022/09/13 08:08:24;;;;;;;1999.90;999.90;;;;;;;;;;5001027;28;21741;-74
2022/09/13 08:10:52;;;;;;;1999.90;999.90;;;;;;;;;;5003343;28;20482;-75
2022/09/13 08:13:19;;;;;;;1999.90;999.90;;;;;;;;;;5003950;28;20395;-75
2022/09/13 08:15:48;;;;;;;1999.90;999.90;;;;;;;;;;5014420;28;20470;-75
2022/09/13 08:18:16;;;;;;;1999.90;999.90;;;;;;;;;;5003511;28;20407;-75
2022/09/13 08:20:45;;;;;;;1999.90;999.90;;;;;;;;;;5005480;28;20519;-74
2022/09/13 08:23:13;;;;;;;1999.90;999.90;;;;;;;;;;5003586;28;20388;-75
2022/09/13 08:25:41;;;;;;;1999.90;999.90;;;;;;;;;;5005253;28;20415;-75
2022/09/13 08:28:10;;;;;;;1999.90;999.90;;;;;;;;;;5005771;28;20464;-75
2022/09/13 08:30:38;;;;;;;1999.90;999.90;;;;;;;;;;5021660;28;20408;-74
2022/09/13 08:33:06;;;;;;;1999.90;999.90;;;;;;;;;;5002996;28;20493;-75
2022/09/13 08:35:34;;;;;;;1999.90;999.90;;;;;;;;;;5005003;28;20458;-75
2022/09/13 08:38:03;;;;;;;1999.90;999.90;;;;;;;;;;5006099;28;20771;-76
2022/09/13 08:40:33;;;;;;;1999.90;999.90;;;;;;;;;;5004820;28;20470;-74
2022/09/13 08:43:03;;;;;;;1999.90;999.90;;;;;;;;;;5003136;28;20392;-74
2022/09/13 08:45:31;;;;;;;1999.90;999.90;;;;;;;;;;4985321;28;20419;-74
2022/09/13 08:48:03;;;;;;;1999.90;999.90;;;;;;;;;;5018985;28;20403;-75
2022/09/13 08:50:32;;;;;;;1999.90;999.90;;;;;;;;;;5002671;28;20477;-74
2022/09/13 08:53:08;;;;;;;1999.90;999.90;;;;;;;;;;5003135;28;20427;-74
2022/09/13 08:55:43;;;;;;;1999.90;999.90;;;;;;;;;;5006156;28;20451;-75
2022/09/13 08:58:19;;;;;;;1999.90;999.90;;;;;;;;;;4986660;28;20511;-76
2022/09/13 09:00:49;;;;;;;1999.90;999.90;;;;;;;;;;5004767;28;20666;-74
2022/09/13 09:03:22;;;;;;;1999.90;999.90;;;;;;;;;;5007473;28;20229;-76
2022/09/13 09:05:50;;;;;;;1999.90;999.90;;;;;;;;;;5022831;28;20418;-75
2022/09/13 09:08:26;;;;;;;1999.90;999.90;;;;;;;;;;5005410;28;20506;-75
2022/09/13 09:10:55;;;;;;;1999.90;999.90;;;;;;;;;;5022404;28;20265;-75
2022/09/13 09:13:26;;;;;;;1999.90;999.90;;;;;;;;;;5006072;28;20230;-74
2022/09/13 09:15:56;;;;;;;1999.90;999.90;;;;;;;;;;5007714;28;20320;-74
2022/09/13 09:18:25;;;;;;;1999.90;999.90;;;;;;;;;;5022728;28;20226;-75
2022/09/13 09:20:55;;;;;;;1999.90;999.90;;;;;;;;;;5005366;28;20329;-74
2022/09/13 09:23:26;;;;;;;1999.90;999.90;;;;;;;;;;5004767;28;20313;-74
2022/09/13 09:25:56;;;;;;;1999.90;999.90;;;;;;;;;;4989344;28;20811;-74
2022/09/13 09:28:25;;;;;;;1999.90;999.90;;;;;;;;;;5005287;28;20229;-75
2022/09/13 09:30:59;;;;;;;1999.90;999.90;;;;;;;;;;5006830;28;20362;-74
2022/09/13 09:33:33;;;;;;;1999.90;999.90;;;;;;;;;;5006758;28;20233;-74
2022/09/13 09:36:03;;;;;;;1999.90;999.90;;;;;;;;;;5006670;28;20269;-76
2022/09/13 09:38:40;;;;;;;1999.90;999.90;;;;;;;;;;5006200;28;20234;-74
2022/09/13 09:41:12;;;;;;;1999.90;999.90;;;;;;;;;;5005203;28;20890;-74
2022/09/13 09:43:44;;;;;;;1999.90;999.90;;;;;;;;;;5006736;28;20230;-75
2022/09/13 09:46:14;;;;;;;1999.90;999.90;;;;;;;;;;5006331;28;21170;-77
2022/09/13 09:48:44;;;;;;;1999.90;999.90;;;;;;;;;;5008582;28;20240;-74
2022/09/13 09:51:13;;;;;;;1999.90;999.90;;;;;;;;;;5005803;28;21478;-74
2022/09/13 09:53:46;;;;;;;1999.90;999.90;;;;;;;;;;5005173;28;20285;-74
2022/09/13 09:56:24;;;;;;;1999.90;999.90;;;;;;;;;;4989708;28;20244;-75
2022/09/13 09:58:53;;;;;;;1999.90;999.90;;;;;;;;;;5021327;28;21021;-74
2022/09/13 10:01:24;;;;;;;1999.90;999.90;;;;;;;;;;5021733;28;20324;-75
2022/09/13 10:04:00;;;;;;;1999.90;999.90;;;;;;;;;;5005683;28;20230;-74
2022/09/13 10:06:29;;;;;;;1999.90;999.90;;;;;;;;;;5007596;28;20229;-73
2022/09/13 10:09:00;;;;;;;1999.90;999.90;;;;;;;;;;5004603;28;20838;-75
2022/09/13 10:11:41;;;;;;;1999.90;999.90;;;;;;;;;;5004726;28;20314;-74
2022/09/13 10:14:27;;;;;;;1999.90;999.90;;;;;;;;;;4990142;28;20226;-74
2022/09/13 10:17:03;;;;;;;1999.90;999.90;;;;;;;;;;5005333;28;20810;-74
2022/09/13 10:19:31;;;;;;;1999.90;999.90;;;;;;;;;;5005084;28;20237;-75
2022/09/13 10:22:00;;;;;;;1999.90;999.90;;;;;;;;;;5006453;28;20234;-75
2022/09/13 10:24:30;;;;;;;1999.90;999.90;;;;;;;;;;5004812;28;20296;-75
2022/09/13 10:26:58;;;;;;;1999.90;999.90;;;;;;;;;;5005176;28;20272;-74
2022/09/13 10:29:26;;;;;;;1999.90;999.90;;;;;;;;;;5005721;28;20242;-75
2022/09/13 10:31:56;;;;;;;1999.90;999.90;;;;;;;;;;5006089;28;20320;-75
2022/09/13 10:34:26;;;;;;;1999.90;999.90;;;;;;;;;;5006535;28;20321;-76
2022/09/13 10:36:57;;;;;;;1999.90;999.90;;;;;;;;;;5006787;28;20241;-76
2022/09/13 10:39:25;;;;;;;1999.90;999.90;;;;;;;;;;5004497;28;20265;-76
2022/09/13 10:41:56;;;;;;;1999.90;999.90;;;;;;;;;;5006494;28;20269;-74
2022/09/13 10:44:31;;;;;;;1999.90;999.90;;;;;;;;;;5002671;28;21474;-75
2022/09/13 10:47:01;;;;;;;1999.90;999.90;;;;;;;;;;5002632;28;20230;-75
2022/09/13 10:49:36;;;;;;;1999.90;999.90;;;;;;;;;;5004910;28;20233;-75
2022/09/13 10:52:19;;;;;;;1999.90;999.90;;;;;;;;;;5003380;28;20237;-76
2022/09/13 10:54:46;;;;;;;1999.90;999.90;;;;;;;;;;5002371;28;20288;-75
2022/09/13 10:57:28;;;;;;;1999.90;999.90;;;;;;;;;;5003015;28;21068;-76
2022/09/13 10:59:56;;;;;;;1999.90;999.90;;;;;;;;;;5003990;28;20244;-75
2022/09/13 11:02:36;;;;;;;1999.90;999.90;;;;;;;;;;5003986;28;20234;-76
2022/09/13 11:05:17;;;;;;;1999.90;999.90;;;;;;;;;;5006352;28;20313;-76
2022/09/13 11:08:00;;;;;;;1999.90;999.90;;;;;;;;;;5005678;28;20229;-75
2022/09/13 11:10:31;;;;;;;1999.90;999.90;;;;;;;;;;5004906;28;20727;-75
2022/09/13 11:13:05;;;;;;;1999.90;999.90;;;;;;;;;;5004753;28;20222;-76
2022/09/13 11:15:42;;;;;;;1999.90;999.90;;;;;;;;;;5004570;28;20222;-75
2022/09/13 11:18:19;;;;;;;1999.90;999.90;;;;;;;;;;5020963;28;20671;-75
2022/09/13 11:20:52;;;;;;;1999.90;999.90;;;;;;;;;;4988985;28;20229;-75
2022/09/13 11:23:32;;;;;;;1999.90;999.90;;;;;;;;;;5004413;28;20286;-75
2022/09/13 11:26:05;;;;;;;1999.90;999.90;;;;;;;;;;5004312;28;20229;-75
2022/09/13 11:28:41;;;;;;;1999.90;999.90;;;;;;;;;;5004145;28;20233;-75
2022/09/13 11:31:18;;;;;;;1999.90;999.90;;;;;;;;;;5005181;28;20691;-75
2022/09/13 11:33:54;;;;;;;1999.90;999.90;;;;;;;;;;5005549;28;20253;-76
2022/09/13 11:36:34;;;;;;;1999.90;999.90;;;;;;;;;;5005266;28;20245;-75
2022/09/13 11:39:10;;;;;;;1999.90;999.90;;;;;;;;;;5004961;28;20234;-75
2022/09/13 11:41:43;;;;;;;1999.90;999.90;;;;;;;;;;5004389;28;20727;-75
2022/09/13 11:44:19;;;;;;;1999.90;999.90;;;;;;;;;;5003255;28;20294;-74
2022/09/13 11:46:50;;;;;;;1999.90;999.90;;;;;;;;;;5005213;28;20312;-75
2022/09/13 11:49:28;;;;;;;1999.90;999.90;;;;;;;;;;5002896;28;20413;-75
2022/09/13 11:52:00;;;;;;;1999.90;999.90;;;;;;;;;;5006423;28;21018;-75
2022/09/13 11:54:36;;;;;;;1999.90;999.90;;;;;;;;;;5018313;28;20408;-75
2022/09/13 11:57:07;;;;;;;1999.90;999.90;;;;;;;;;;5004007;28;20561;-75
2022/09/13 11:59:38;;;;;;;1999.90;999.90;;;;;;;;;;5003469;28;20550;-76
2022/09/13 12:02:13;;;;;;;1999.90;999.90;;;;;;;;;;5001215;28;20427;-75
2022/09/13 12:04:45;;;;;;;1999.90;999.90;;;;;;;;;;5004511;28;20974;-75
2022/09/13 12:07:35;;;;;;;1999.90;999.90;;;;;;;;;;5019960;28;20233;-76
2022/09/13 12:10:06;;;;;;;1999.90;999.90;;;;;;;;;;5004387;28;20300;-75
2022/09/13 12:12:35;;;;;;;1999.90;999.90;;;;;;;;;;5003428;28;20234;-75
2022/09/13 12:15:06;;;;;;;1999.90;999.90;;;;;;;;;;5003779;28;20284;-76
2022/09/13 12:17:37;;;;;;;1999.90;999.90;;;;;;;;;;5004602;28;20280;-75
2022/09/13 12:20:05;;;;;;;1999.90;999.90;;;;;;;;;;4986541;28;20308;-75
2022/09/13 12:22:34;;;;;;;1999.90;999.90;;;;;;;;;;5002741;28;20478;-74
2022/09/13 12:25:04;;;;;;;1999.90;999.90;;;;;;;;;;5004629;28;20225;-75
2022/09/13 12:27:37;;;;;;;1999.90;999.90;;;;;;;;;;5003747;28;20284;-75
2022/09/13 12:30:13;;;;;;;1999.90;999.90;;;;;;;;;;5003837;28;20271;-76
2022/09/13 12:32:43;;;;;;;1999.90;999.90;;;;;;;;;;5004687;28;21027;-76
2022/09/13 12:35:17;;;;;;;1999.90;999.90;;;;;;;;;;5001280;28;20399;-76
2022/09/13 12:37:54;;;;;;;1999.90;999.90;;;;;;;;;;5003045;28;20514;-75
2022/09/13 12:40:30;;;;;;;1999.90;999.90;;;;;;;;;;5003622;28;20242;-74
2022/09/13 12:43:11;;;;;;;1999.90;999.90;;;;;;;;;;5002956;28;20225;-74
2022/09/13 12:45:49;;;;;;;1999.90;999.90;;;;;;;;;;5001264;28;20226;-77
2022/09/13 12:48:34;;;;;;;1999.90;999.90;;;;;;;;;;5000917;28;20308;-75
2022/09/13 12:51:07;;;;;;;1999.90;999.90;;;;;;;;;;4987713;28;20926;-76
2022/09/13 12:53:50;;;;;;;1999.90;999.90;;;;;;;;;;5002911;28;20254;-75
2022/09/13 12:56:33;;;;;;;1999.90;999.90;;;;;;;;;;5003643;28;20292;-75
2022/09/13 12:59:09;;;;;;;1999.90;999.90;;;;;;;;;;5004184;28;20261;-75
2022/09/13 13:01:38;;;;;;;1999.90;999.90;;;;;;;;;;5005274;28;20233;-75
2022/09/13 13:04:09;;;;;;;1999.90;999.90;;;;;;;;;;5004821;28;20222;-77
2022/09/13 13:06:39;;;;;;;1999.90;999.90;;;;;;;;;;5007221;28;20237;-75
2022/09/13 13:09:20;;;;;;;1999.90;999.90;;;;;;;;;;4984575;28;20284;-76
2022/09/13 13:11:57;;;;;;;1999.90;999.90;;;;;;;;;;4997324;28;20234;-75
2022/09/13 13:14:29;;;;;;;1999.90;999.90;;;;;;;;;;5002861;28;21083;-75
2022/09/13 13:17:12;;;;;;;1999.90;999.90;;;;;;;;;;5004075;28;20234;-75
2022/09/13 13:19:42;;;;;;;1999.90;999.90;;;;;;;;;;5016419;28;20788;-75
2022/09/13 13:22:28;;;;;;;1999.90;999.90;;;;;;;;;;5003229;28;20230;-75
2022/09/13 13:24:56;;;;;;;1999.90;999.90;;;;;;;;;;5001344;28;20280;-75
2022/09/13 13:27:36;;;;;;;1999.90;999.90;;;;;;;;;;4989655;28;20341;-76
2022/09/13 13:30:23;;;;;;;1999.90;999.90;;;;;;;;;;5004083;28;20964;-76
2022/09/13 13:33:04;;;;;;;1999.90;999.90;;;;;;;;;;5005864;28;20233;-75
2022/09/13 13:35:33;;;;;;;1999.90;999.90;;;;;;;;;;5005869;28;20226;-76
2022/09/13 13:38:14;;;;;;;1999.90;999.90;;;;;;;;;;5006157;28;20245;-75
2022/09/13 13:40:41;;;;;;;1999.90;999.90;;;;;;;;;;5007684;28;20241;-73
2022/09/13 13:43:32;;;;;;;1999.90;999.90;;;;;;;;;;4986714;28;21366;-75
2022/09/13 13:46:15;;;;;;;1999.90;999.90;;;;;;;;;;5004543;28;21317;-74
2022/09/13 13:48:42;;;;;;;1999.90;999.90;;;;;;;;;;4987381;28;20234;-74
2022/09/13 13:51:16;;;;;;;1999.90;999.90;;;;;;;;;;5020789;28;20233;-75
2022/09/13 13:53:46;;;;;;;1999.90;999.90;;;;;;;;;;5003472;28;20254;-75
2022/09/13 13:56:17;;;;;;;1999.90;999.90;;;;;;;;;;5005175;28;20234;-75
2022/09/13 13:58:46;;;;;;;1999.90;999.90;;;;;;;;;;5003416;28;20237;-75
2022/09/13 14:01:17;;;;;;;1999.90;999.90;;;;;;;;;;5020318;28;20325;-75
2022/09/13 14:03:58;;;;;;;1999.90;999.90;;;;;;;;;;5006654;28;20225;-75
2022/09/13 14:06:30;;;;;;;1999.90;999.90;;;;;;;;;;5002437;28;20256;-76